Accueil
METAR-TAF:

METAR-TAF

Aéroports :

Shuttle Landing Facility

Centre spatial Kennedy, Floride, États-Unis

latitude: 28-37N, longitude: 080-43W, altitude: 3 m

Observation

Le bulletin a été fait il y a 44 minutes, à 04:56 UTC
Vent calme
Température 26°C
Humidité 84%
Pression 1019 hPa
Visibilité: 16.1 km
Ciel clair

METAR: KTTS 280456Z AUTO 00000KT 10SM CLR 26/23 A3008 RMK AO2 SLP190 T02580234 403080242 $

Heure: 01:40 (05:40 UTC)


TAF: absent

Observations et prévisions météorologiques de plus de 4000 aéroports (messages METAR et TAF).

Les stations disponibles sont représentées par des disques jaunes et rouges sur la carte.

Passer la souris dessus pour voir le nom de la station.

Cliquer dessus pour voir les observations et prévisions météorologiques.

Pour changer de carte: cliquez sur les boutons verts avec une croix noire pour zoomer, sur le bouton vert avec un tiret pour effectuer un zoom arrière, ou sur les flèches vertes pour les cartes adjacentes.


METAR-TAF: